Time;durP1;ratioP1;P1;durP2;ratioP2;P2;SDS_P1;SDS_P2;PMS_P1;PMS_P2;Temp;Humidity;BMP_temperature;BMP_pressure;BME280_temperature;BME280_humidity;BME280_pressure;Samples;Min_cycle;Max_cycle;Signal;HPM_P1;HPM_P2
2022/07/01 00:00:22;;;;;;;;;;;15.70;99.90;;;;;;5029829;28;19916;-67
2022/07/01 00:02:48;;;;;;;;;;;15.60;99.90;;;;;;5029609;28;19921;-67
2022/07/01 00:05:13;;;;;;;;;;;15.70;99.90;;;;;;5023053;28;19917;-67
2022/07/01 00:07:39;;;;;;;;;;;15.70;99.90;;;;;;5012245;28;20453;-67
2022/07/01 00:10:05;;;;;;;;;;;15.70;99.90;;;;;;5012683;28;19917;-66
2022/07/01 00:12:31;;;;;;;;;;;15.70;99.90;;;;;;5030029;28;19960;-67
2022/07/01 00:14:56;;;;;;;;;;;15.70;99.90;;;;;;5003147;28;19921;-67
2022/07/01 00:17:22;;;;;;;;;;;15.70;99.90;;;;;;5029723;28;19929;-68
2022/07/01 00:19:49;;;;;;;;;;;15.70;99.90;;;;;;5029383;28;20016;-67
2022/07/01 00:22:14;;;;;;;;;;;15.80;99.90;;;;;;5030288;28;19917;-67
2022/07/01 00:24:40;;;;;;;;;;;15.80;99.90;;;;;;5016103;28;20017;-67
2022/07/01 00:27:05;;;;;;;;;;;15.70;99.90;;;;;;5023937;28;19917;-68
2022/07/01 00:29:33;;;;;;;;;;;15.70;99.90;;;;;;5009375;28;19917;-67
2022/07/01 00:31:58;;;;;;;;;;;15.80;99.90;;;;;;5013751;28;20385;-68
2022/07/01 00:34:24;;;;;;;;;;;15.80;99.90;;;;;;5029371;28;19963;-67
2022/07/01 00:36:50;;;;;;;;;;;15.80;99.90;;;;;;5011530;28;19917;-66
2022/07/01 00:39:15;;;;;;;;;;;15.70;99.90;;;;;;5028241;28;20389;-67
2022/07/01 00:41:41;;;;;;;;;;;15.70;99.90;;;;;;5028870;28;19963;-68
2022/07/01 00:44:15;;;;;;;;;;;15.70;99.90;;;;;;5030352;28;19916;-67
2022/07/01 00:46:40;;;;;;;;;;;15.70;99.90;;;;;;4995066;28;19920;-65
2022/07/01 00:49:06;;;;;;;;;;;15.70;99.90;;;;;;5007816;28;20469;-66
2022/07/01 00:51:32;;;;;;;;;;;15.70;99.90;;;;;;5029284;28;20030;-66
2022/07/01 00:53:58;;;;;;;;;;;15.70;99.90;;;;;;5026051;28;19917;-66
2022/07/01 00:56:24;;;;;;;;;;;15.60;99.90;;;;;;5009475;28;19924;-66
2022/07/01 00:58:53;;;;;;;;;;;15.60;99.90;;;;;;5028231;28;19917;-66
2022/07/01 01:01:19;;;;;;;;;;;15.60;99.90;;;;;;5029999;28;19967;-66
2022/07/01 01:03:45;;;;;;;;;;;15.50;99.90;;;;;;5010671;28;19917;-66
2022/07/01 01:06:10;;;;;;;;;;;15.40;99.90;;;;;;5008180;28;19990;-67
2022/07/01 01:08:36;;;;;;;;;;;15.40;99.90;;;;;;5028479;28;19921;-66
2022/07/01 01:11:03;;;;;;;;;;;15.30;99.90;;;;;;5011056;28;19925;-66
2022/07/01 01:13:29;;;;;;;;;;;15.40;99.90;;;;;;4995281;28;19975;-66
2022/07/01 01:15:55;;;;;;;;;;;15.40;99.90;;;;;;5011074;28;19944;-66
2022/07/01 01:18:23;;;;;;;;;;;15.40;99.90;;;;;;5011060;28;20274;-66
2022/07/01 01:20:49;;;;;;;;;;;15.50;99.90;;;;;;5026919;28;19925;-68
2022/07/01 01:23:14;;;;;;;;;;;15.40;99.90;;;;;;4995542;28;19921;-66
2022/07/01 01:25:40;;;;;;;;;;;15.50;99.90;;;;;;5026858;28;20404;-67
2022/07/01 01:28:08;;;;;;;;;;;15.50;99.90;;;;;;5010564;28;19985;-67
2022/07/01 01:30:35;;;;;;;;;;;15.50;99.90;;;;;;5022606;28;19964;-67
2022/07/01 01:33:01;;;;;;;;;;;15.50;99.90;;;;;;5010998;28;19917;-66
2022/07/01 01:35:26;;;;;;;;;;;15.50;99.90;;;;;;5028690;28;19924;-67
2022/07/01 01:37:52;;;;;;;;;;;15.50;99.90;;;;;;5025197;28;20401;-68
2022/07/01 01:40:18;;;;;;;;;;;15.50;99.90;;;;;;5028317;28;19944;-68
2022/07/01 01:42:44;;;;;;;;;;;15.50;99.90;;;;;;4993577;28;19917;-68
2022/07/01 01:45:10;;;;;;;;;;;15.50;99.90;;;;;;5009485;28;19924;-68
2022/07/01 01:47:36;;;;;;;;;;;15.50;99.90;;;;;;5028567;28;19923;-68
2022/07/01 01:50:03;;;;;;;;;;;15.50;99.90;;;;;;5026152;28;20019;-68
2022/07/01 01:52:29;;;;;;;;;;;15.50;99.90;;;;;;4993162;28;19974;-68
2022/07/01 01:54:54;;;;;;;;;;;15.50;99.90;;;;;;5022049;28;19920;-68
2022/07/01 01:57:20;;;;;;;;;;;15.60;99.90;;;;;;5010164;28;19972;-68
2022/07/01 01:59:46;;;;;;;;;;;15.50;99.90;;;;;;4993363;28;19970;-68
2022/07/01 02:02:11;;;;;;;;;;;15.40;99.90;;;;;;5024541;28;20011;-68
2022/07/01 02:04:37;;;;;;;;;;;15.40;99.90;;;;;;5011753;28;20343;-69
2022/07/01 02:07:04;;;;;;;;;;;15.30;99.90;;;;;;5032607;28;19963;-68
2022/07/01 02:09:33;;;;;;;;;;;15.30;99.90;;;;;;5014837;28;20358;-69
2022/07/01 02:11:58;;;;;;;;;;;15.40;99.90;;;;;;5012574;28;19921;-68
2022/07/01 02:14:24;;;;;;;;;;;15.20;99.90;;;;;;5012297;28;19921;-68
2022/07/01 02:16:49;;;;;;;;;;;15.30;99.90;;;;;;4997931;28;19952;-69
2022/07/01 02:19:15;;;;;;;;;;;15.30;99.90;;;;;;5030471;28;19928;-69
2022/07/01 02:21:41;;;;;;;;;;;15.30;99.90;;;;;;5014636;28;19917;-68
2022/07/01 02:24:06;;;;;;;;;;;15.20;99.90;;;;;;5012650;28;19935;-69
2022/07/01 02:26:32;;;;;;;;;;;15.20;99.90;;;;;;5030792;28;19928;-69
2022/07/01 02:28:58;;;;;;;;;;;15.30;99.90;;;;;;5011763;28;20288;-69
2022/07/01 02:31:23;;;;;;;;;;;15.20;99.90;;;;;;5031980;28;20417;-69
2022/07/01 02:33:49;;;;;;;;;;;15.10;99.90;;;;;;5031153;28;19982;-69
2022/07/01 02:36:14;;;;;;;;;;;15.10;99.90;;;;;;5011913;28;19917;-69
2022/07/01 02:38:40;;;;;;;;;;;15.10;99.90;;;;;;5031619;28;20043;-69
2022/07/01 02:41:05;;;;;;;;;;;15.10;99.90;;;;;;5032159;28;19924;-69
2022/07/01 02:43:31;;;;;;;;;;;15.10;99.90;;;;;;5014262;28;19917;-69
2022/07/01 02:45:57;;;;;;;;;;;15.10;99.90;;;;;;5008748;28;20163;-68
2022/07/01 02:48:23;;;;;;;;;;;15.10;99.90;;;;;;5013265;28;20378;-69
2022/07/01 02:50:51;;;;;;;;;;;15.10;99.90;;;;;;5013077;28;19935;-69
2022/07/01 02:53:16;;;;;;;;;;;15.20;99.90;;;;;;5030433;28;20288;-68
2022/07/01 02:55:42;;;;;;;;;;;15.10;99.90;;;;;;5011866;28;20007;-68
2022/07/01 02:58:07;;;;;;;;;;;15.10;99.90;;;;;;5031509;28;20008;-68
2022/07/01 03:00:33;;;;;;;;;;;15.10;99.90;;;;;;5031154;28;19956;-68
2022/07/01 03:02:59;;;;;;;;;;;15.10;99.90;;;;;;5025797;28;19917;-68
2022/07/01 03:05:24;;;;;;;;;;;15.10;99.90;;;;;;4997223;28;19917;-68
2022/07/01 03:07:52;;;;;;;;;;;15.10;99.90;;;;;;5030862;28;20377;-68
2022/07/01 03:10:18;;;;;;;;;;;15.10;99.90;;;;;;5028318;28;19929;-68
2022/07/01 03:12:43;;;;;;;;;;;15.10;99.90;;;;;;5019933;28;19917;-68
2022/07/01 03:15:13;;;;;;;;;;;15.10;99.90;;;;;;5012995;28;19924;-68
2022/07/01 03:17:40;;;;;;;;;;;15.10;99.90;;;;;;4995967;28;19998;-68
2022/07/01 03:20:07;;;;;;;;;;;15.10;99.90;;;;;;5011518;28;19917;-68
2022/07/01 03:22:33;;;;;;;;;;;15.10;99.90;;;;;;5029814;28;19956;-68
2022/07/01 03:24:58;;;;;;;;;;;15.10;99.90;;;;;;5030327;28;20075;-68
2022/07/01 03:27:24;;;;;;;;;;;15.10;99.90;;;;;;5014124;28;20283;-68
2022/07/01 03:29:50;;;;;;;;;;;15.10;99.90;;;;;;5011262;28;20075;-68
2022/07/01 03:32:16;;;;;;;;;;;15.10;99.90;;;;;;5030801;28;20222;-69
2022/07/01 03:34:42;;;;;;;;;;;15.10;99.90;;;;;;5030307;28;19966;-68
2022/07/01 03:37:08;;;;;;;;;;;15.10;99.90;;;;;;5012961;28;20293;-68
2022/07/01 03:39:38;;;;;;;;;;;15.00;99.90;;;;;;5011157;28;20523;-68
2022/07/01 03:42:04;;;;;;;;;;;15.00;99.90;;;;;;4996659;28;19924;-68
2022/07/01 03:44:30;;;;;;;;;;;15.00;99.90;;;;;;4996638;28;19967;-68
2022/07/01 03:46:56;;;;;;;;;;;15.00;99.90;;;;;;5012463;28;19920;-68
2022/07/01 03:49:22;;;;;;;;;;;14.90;99.90;;;;;;5025539;28;20355;-68
2022/07/01 03:51:48;;;;;;;;;;;15.00;99.90;;;;;;4998824;28;19921;-68
2022/07/01 03:57:17;;;;;;;;;;;15.00;99.90;;;;;;4931973;29;19983;-68
2022/07/01 03:59:46;;;;;;;;;;;15.00;99.90;;;;;;4933472;29;19918;-68
2022/07/01 04:02:11;;;;;;;;;;;14.90;99.90;;;;;;5048948;22;19971;-70
2022/07/01 04:04:37;;;;;;;;;;;14.90;99.90;;;;;;5014035;28;20358;-70
2022/07/01 04:07:04;;;;;;;;;;;14.80;99.90;;;;;;5049232;28;20003;-70
2022/07/01 04:09:30;;;;;;;;;;;14.90;99.90;;;;;;5048826;28;19920;-70
2022/07/01 04:11:56;;;;;;;;;;;14.90;99.90;;;;;;5030549;28;19924;-70
2022/07/01 04:14:24;;;;;;;;;;;14.90;99.90;;;;;;5024622;28;20278;-70
2022/07/01 04:16:49;;;;;;;;;;;15.00;99.90;;;;;;5029299;28;19986;-70
2022/07/01 04:19:15;;;;;;;;;;;15.00;99.90;;;;;;5011781;28;20464;-70
2022/07/01 04:24:24;;;;;;;;;;;15.00;99.90;;;;;;5009732;28;19932;-70
2022/07/01 04:26:51;;;;;;;;;;;14.90;99.90;;;;;;4994463;28;19917;-70
2022/07/01 04:29:17;;;;;;;;;;;15.00;99.90;;;;;;5012513;28;20381;-70
2022/07/01 04:31:42;;;;;;;;;;;15.00;99.90;;;;;;5030187;28;19950;-71
2022/07/01 04:34:08;;;;;;;;;;;15.00;99.90;;;;;;5048926;28;20412;-71
2022/07/01 04:36:34;;;;;;;;;;;14.90;99.90;;;;;;5049291;28;19971;-71
2022/07/01 04:39:00;;;;;;;;;;;15.00;99.90;;;;;;5018247;28;19924;-71
2022/07/01 04:44:09;;;;;;;;;;;15.00;99.90;;;;;;5010145;28;19921;-71
2022/07/01 04:46:35;;;;;;;;;;;15.10;99.90;;;;;;5029224;28;20392;-71
2022/07/01 04:49:01;;;;;;;;;;;15.10;99.90;;;;;;4990232;28;19923;-71
2022/07/01 04:51:26;;;;;;;;;;;15.10;99.90;;;;;;5011033;28;19920;-71
2022/07/01 04:53:52;;;;;;;;;;;15.10;99.90;;;;;;5016053;28;19971;-71
2022/07/01 04:56:18;;;;;;;;;;;15.10;99.90;;;;;;5008833;28;19999;-70
2022/07/01 04:58:43;;;;;;;;;;;15.10;99.90;;;;;;5000534;28;20377;-71
2022/07/01 05:01:08;;;;;;;;;;;15.10;99.90;;;;;;5027826;28;19924;-71
2022/07/01 05:03:34;;;;;;;;;;;15.10;99.90;;;;;;5028428;28;20270;-70
2022/07/01 05:06:00;;;;;;;;;;;15.10;99.90;;;;;;4998733;28;19921;-71
2022/07/01 05:08:25;;;;;;;;;;;15.10;99.90;;;;;;5024958;28;20318;-71
2022/07/01 05:10:51;;;;;;;;;;;15.20;99.90;;;;;;5027791;28;20001;-71
2022/07/01 05:13:16;;;;;;;;;;;15.10;99.90;;;;;;5003496;28;20330;-71
2022/07/01 05:15:42;;;;;;;;;;;15.20;99.90;;;;;;5007928;28;19916;-71
2022/07/01 05:23:36;;;;;;;;;;;15.30;99.90;;;;;;5023508;28;20031;-71
2022/07/01 05:26:01;;;;;;;;;;;15.30;99.90;;;;;;5025135;28;20349;-71
2022/07/01 05:28:27;;;;;;;;;;;15.30;99.90;;;;;;5009526;28;19917;-70
2022/07/01 05:30:52;;;;;;;;;;;15.30;99.90;;;;;;5010445;28;19921;-71
2022/07/01 05:33:20;;;;;;;;;;;15.30;99.90;;;;;;5007928;28;19998;-71
2022/07/01 05:35:46;;;;;;;;;;;15.30;99.90;;;;;;4992816;28;20269;-71
2022/07/01 05:38:12;;;;;;;;;;;15.30;99.90;;;;;;5027581;28;19920;-71
2022/07/01 05:40:38;;;;;;;;;;;15.30;99.90;;;;;;5027210;28;19916;-70
2022/07/01 05:43:03;;;;;;;;;;;15.30;99.90;;;;;;5007277;28;19917;-70
2022/07/01 05:45:29;;;;;;;;;;;15.30;99.90;;;;;;5039759;28;20392;-71
2022/07/01 05:47:54;;;;;;;;;;;15.30;99.90;;;;;;5010150;28;20117;-70
2022/07/01 05:50:20;;;;;;;;;;;15.30;99.90;;;;;;5007073;28;19917;-71
2022/07/01 05:52:46;;;;;;;;;;;15.40;99.90;;;;;;5027916;28;19929;-71
2022/07/01 05:55:11;;;;;;;;;;;15.40;99.90;;;;;;5009197;28;20293;-71
2022/07/01 05:57:37;;;;;;;;;;;15.40;99.90;;;;;;5010021;28;19924;-70
2022/07/01 06:00:03;;;;;;;;;;;15.40;99.90;;;;;;5021036;28;20323;-71
2022/07/01 06:02:29;;;;;;;;;;;15.40;99.90;;;;;;5028025;28;19963;-71
2022/07/01 06:04:54;;;;;;;;;;;15.50;99.90;;;;;;5027328;28;19965;-70
2022/07/01 06:07:20;;;;;;;;;;;15.50;99.90;;;;;;5009164;28;20367;-70
2022/07/01 06:09:45;;;;;;;;;;;15.50;99.90;;;;;;5023544;28;19975;-71
2022/07/01 06:12:11;;;;;;;;;;;15.50;99.90;;;;;;5009170;28;20404;-71
2022/07/01 06:14:37;;;;;;;;;;;15.50;99.90;;;;;;5027853;28;19924;-71
2022/07/01 06:17:03;;;;;;;;;;;15.50;99.90;;;;;;5026311;28;20012;-70
2022/07/01 06:19:29;;;;;;;;;;;15.50;99.90;;;;;;5008934;28;19994;-70
2022/07/01 06:21:54;;;;;;;;;;;15.50;99.90;;;;;;5027741;28;20393;-71
2022/07/01 06:24:20;;;;;;;;;;;15.60;99.90;;;;;;4990024;28;19923;-71
2022/07/01 06:26:46;;;;;;;;;;;15.70;99.90;;;;;;5027448;28;19995;-71
2022/07/01 06:29:13;;;;;;;;;;;15.70;99.90;;;;;;5030297;28;19917;-71
2022/07/01 06:31:38;;;;;;;;;;;15.60;99.90;;;;;;5009612;28;19925;-70
2022/07/01 06:34:04;;;;;;;;;;;15.70;99.90;;;;;;5008469;28;20266;-70
2022/07/01 06:36:29;;;;;;;;;;;15.70;99.90;;;;;;5023263;28;19917;-71
2022/07/01 06:38:55;;;;;;;;;;;15.70;99.90;;;;;;5028016;28;19970;-70
2022/07/01 06:41:26;;;;;;;;;;;15.70;99.90;;;;;;5009392;28;20340;-70
2022/07/01 06:43:55;;;;;;;;;;;15.80;99.90;;;;;;5020141;28;19924;-71
2022/07/01 06:46:21;;;;;;;;;;;15.80;99.90;;;;;;5026604;28;19917;-70
2022/07/01 06:48:46;;;;;;;;;;;15.80;99.90;;;;;;5026969;28;19939;-70
2022/07/01 06:51:12;;;;;;;;;;;15.80;99.90;;;;;;5009432;28;19924;-70
2022/07/01 06:53:38;;;;;;;;;;;15.90;99.90;;;;;;5009139;28;19917;-71
2022/07/01 06:56:04;;;;;;;;;;;15.90;99.90;;;;;;5031397;28;19929;-70
2022/07/01 06:58:29;;;;;;;;;;;15.90;99.90;;;;;;5030963;28;19920;-70
2022/07/01 07:00:55;;;;;;;;;;;16.00;99.90;;;;;;5030903;28;20192;-70
2022/07/01 07:03:20;;;;;;;;;;;16.00;99.90;;;;;;5022354;28;19921;-70
2022/07/01 07:05:46;;;;;;;;;;;16.00;99.90;;;;;;5030437;28;20168;-70
2022/07/01 07:08:11;;;;;;;;;;;16.10;99.90;;;;;;5012603;28;19917;-70
2022/07/01 07:10:37;;;;;;;;;;;16.10;99.90;;;;;;5007048;28;19925;-70
2022/07/01 07:13:03;;;;;;;;;;;16.10;99.90;;;;;;5026988;28;19924;-70
2022/07/01 07:15:28;;;;;;;;;;;16.10;99.90;;;;;;5017096;28;19917;-70
2022/07/01 07:17:57;;;;;;;;;;;16.20;99.90;;;;;;4993249;28;19995;-70
2022/07/01 07:20:26;;;;;;;;;;;16.20;99.90;;;;;;4999295;28;20289;-70
2022/07/01 07:22:52;;;;;;;;;;;16.20;99.90;;;;;;5010515;28;19924;-70
2022/07/01 07:25:18;;;;;;;;;;;16.30;99.90;;;;;;5012013;28;19921;-70
2022/07/01 07:27:46;;;;;;;;;;;16.40;99.90;;;;;;5028758;28;19967;-70
2022/07/01 07:30:14;;;;;;;;;;;16.30;99.90;;;;;;5029598;28;19921;-71
2022/07/01 07:32:40;;;;;;;;;;;16.40;99.90;;;;;;5012021;28;19917;-71
2022/07/01 07:35:06;;;;;;;;;;;16.50;99.90;;;;;;5030436;28;19917;-71
2022/07/01 07:37:32;;;;;;;;;;;16.50;99.90;;;;;;5023424;28;19917;-70
2022/07/01 07:39:58;;;;;;;;;;;16.60;99.90;;;;;;5012105;28;19940;-70
2022/07/01 07:42:24;;;;;;;;;;;16.60;99.90;;;;;;5012136;28;19924;-70
2022/07/01 07:44:49;;;;;;;;;;;16.60;99.90;;;;;;5024788;28;19917;-71
2022/07/01 07:47:15;;;;;;;;;;;16.70;99.90;;;;;;5011505;28;20007;-70
2022/07/01 07:49:40;;;;;;;;;;;16.80;99.90;;;;;;4995437;28;19916;-71
2022/07/01 07:52:07;;;;;;;;;;;16.90;99.90;;;;;;4998160;28;19929;-71
2022/07/01 07:54:33;;;;;;;;;;;16.90;99.90;;;;;;5017505;28;20270;-71
2022/07/01 07:56:58;;;;;;;;;;;17.00;99.90;;;;;;5029843;28;20172;-71
2022/07/01 07:59:24;;;;;;;;;;;17.00;99.90;;;;;;5029082;28;19917;-70
2022/07/01 08:01:49;;;;;;;;;;;17.10;99.90;;;;;;5011633;28;20347;-70
2022/07/01 08:04:15;;;;;;;;;;;17.10;99.90;;;;;;5029777;28;20007;-71
2022/07/01 08:06:40;;;;;;;;;;;17.20;99.90;;;;;;5024853;28;19978;-71
2022/07/01 08:09:06;;;;;;;;;;;17.20;99.90;;;;;;5033437;28;20167;-71
2022/07/01 08:11:32;;;;;;;;;;;17.30;99.90;;;;;;5051635;28;19921;-71
2022/07/01 08:13:57;;;;;;;;;;;17.40;99.90;;;;;;5032627;28;20083;-71
2022/07/01 08:16:23;;;;;;;;;;;17.40;99.90;;;;;;5036444;28;20343;-71
2022/07/01 08:18:49;;;;;;;;;;;17.40;99.90;;;;;;5049179;28;19938;-71
2022/07/01 08:21:14;;;;;;;;;;;17.40;99.90;;;;;;5049063;28;19925;-71
2022/07/01 08:23:40;;;;;;;;;;;17.40;99.90;;;;;;5012527;28;19917;-70
2022/07/01 08:26:05;;;;;;;;;;;17.40;99.90;;;;;;5011584;28;19917;-70
2022/07/01 08:28:31;;;;;;;;;;;17.50;99.90;;;;;;5008463;28;20003;-70
2022/07/01 08:30:56;;;;;;;;;;;17.50;99.90;;;;;;5017189;28;19921;-70
2022/07/01 08:33:22;;;;;;;;;;;17.50;99.90;;;;;;5010194;28;20448;-71
2022/07/01 08:35:47;;;;;;;;;;;17.50;99.90;;;;;;5029306;28;19923;-70
2022/07/01 08:38:13;;;;;;;;;;;17.50;99.90;;;;;;5025350;28;19924;-70
2022/07/01 08:40:39;;;;;;;;;;;17.50;99.90;;;;;;5009293;28;20289;-70
2022/07/01 08:43:06;;;;;;;;;;;17.60;99.90;;;;;;5011212;28;19921;-71
2022/07/01 08:45:32;;;;;;;;;;;17.60;99.90;;;;;;5028119;28;20007;-70
2022/07/01 08:48:00;;;;;;;;;;;17.60;99.90;;;;;;5009395;28;20312;-71
2022/07/01 08:50:27;;;;;;;;;;;17.60;99.90;;;;;;4993276;28;19928;-71
2022/07/01 08:52:52;;;;;;;;;;;17.60;99.90;;;;;;5002678;28;19924;-70
2022/07/01 08:55:19;;;;;;;;;;;17.60;99.90;;;;;;4990926;28;20333;-71
2022/07/01 08:57:44;;;;;;;;;;;17.60;99.90;;;;;;5027735;28;20301;-71
2022/07/01 09:00:10;;;;;;;;;;;17.70;99.90;;;;;;5010129;28;19917;-71
2022/07/01 09:02:49;;;;;;;;;;;17.70;99.90;;;;;;5010856;28;20354;-70
2022/07/01 09:05:14;;;;;;;;;;;17.70;99.90;;;;;;5021265;28;19960;-71
2022/07/01 09:07:40;;;;;;;;;;;17.80;99.90;;;;;;5010021;28;19972;-71
2022/07/01 09:10:18;;;;;;;;;;;17.80;99.90;;;;;;5010933;28;20285;-71
2022/07/01 09:12:44;;;;;;;;;;;17.90;99.90;;;;;;5021777;28;20015;-71
2022/07/01 09:15:29;;;;;;;;;;;18.00;99.90;;;;;;5029599;28;20473;-71
2022/07/01 09:17:56;;;;;;;;;;;18.10;99.90;;;;;;5047574;28;19964;-70
2022/07/01 09:20:22;;;;;;;;;;;18.20;99.90;;;;;;5029747;28;19917;-71
2022/07/01 09:22:58;;;;;;;;;;;18.20;99.90;;;;;;5017233;28;20022;-70
2022/07/01 09:25:28;;;;;;;;;;;18.30;99.90;;;;;;5048533;28;19924;-70
2022/07/01 09:28:04;;;;;;;;;;;18.30;99.90;;;;;;5048656;28;20007;-70
2022/07/01 09:30:29;;;;;;;;;;;18.30;99.90;;;;;;5015987;28;20302;-71
2022/07/01 09:33:05;;;;;;;;;;;18.30;99.90;;;;;;5028273;28;19925;-70
2022/07/01 09:35:31;;;;;;;;;;;18.40;99.90;;;;;;5027272;28;19916;-71
2022/07/01 09:37:57;;;;;;;;;;;18.40;99.90;;;;;;5026489;28;19925;-70
2022/07/01 09:40:22;;;;;;;;;;;18.40;99.90;;;;;;5023463;28;19971;-71
2022/07/01 09:42:48;;;;;;;;;;;18.50;99.90;;;;;;5028562;28;20545;-71
2022/07/01 09:45:13;;;;;;;;;;;18.60;99.90;;;;;;5027349;28;19920;-71
2022/07/01 09:47:39;;;;;;;;;;;18.80;99.90;;;;;;5025855;28;19924;-71
2022/07/01 09:50:06;;;;;;;;;;;19.00;99.90;;;;;;5003056;28;19927;-71
2022/07/01 09:52:31;;;;;;;;;;;19.20;99.90;;;;;;5024726;28;19921;-71
2022/07/01 09:54:57;;;;;;;;;;;19.20;99.90;;;;;;5009809;28;20012;-70
2022/07/01 09:57:22;;;;;;;;;;;19.30;99.90;;;;;;5005556;28;19924;-70
2022/07/01 09:59:49;;;;;;;;;;;19.20;99.90;;;;;;5027431;28;19964;-70
2022/07/01 10:02:15;;;;;;;;;;;19.00;99.90;;;;;;5027411;28;19998;-71
2022/07/01 10:04:45;;;;;;;;;;;18.80;99.90;;;;;;5027592;28;19917;-71
2022/07/01 10:07:29;;;;;;;;;;;18.70;99.90;;;;;;5022250;28;19920;-71
2022/07/01 10:09:55;;;;;;;;;;;18.50;99.90;;;;;;5026991;28;20139;-70
2022/07/01 10:12:30;;;;;;;;;;;18.40;99.90;;;;;;5010533;28;20435;-70
2022/07/01 10:14:56;;;;;;;;;;;18.20;99.90;;;;;;5004372;28;19952;-70
2022/07/01 10:17:34;;;;;;;;;;;18.10;99.90;;;;;;5009948;28;20354;-70
2022/07/01 10:20:26;;;;;;;;;;;17.90;99.90;;;;;;5008974;28;19944;-70
2022/07/01 10:22:59;;;;;;;;;;;17.70;99.90;;;;;;5017317;28;20377;-70
2022/07/01 10:25:38;;;;;;;;;;;17.50;99.90;;;;;;5030034;28;20124;-70
2022/07/01 10:28:16;;;;;;;;;;;17.50;99.90;;;;;;5027992;28;19923;-70
2022/07/01 10:31:01;;;;;;;;;;;17.50;99.90;;;;;;5004658;28;19928;-70
2022/07/01 10:33:26;;;;;;;;;;;17.50;99.90;;;;;;5013191;28;19924;-70
2022/07/01 10:35:52;;;;;;;;;;;17.50;99.90;;;;;;5014103;28;19917;-70
2022/07/01 10:38:17;;;;;;;;;;;17.50;99.90;;;;;;5026009;28;19963;-70
2022/07/01 10:40:48;;;;;;;;;;;17.50;99.90;;;;;;5013018;28;20352;-70
2022/07/01 10:43:31;;;;;;;;;;;17.60;99.90;;;;;;5031062;28;19963;-70
2022/07/01 10:45:56;;;;;;;;;;;17.60;99.90;;;;;;5031956;28;19917;-71
2022/07/01 10:48:25;;;;;;;;;;;17.70;99.90;;;;;;5027067;28;20214;-71
2022/07/01 10:50:51;;;;;;;;;;;17.70;99.90;;;;;;5030938;28;19967;-70
2022/07/01 10:53:17;;;;;;;;;;;17.80;99.90;;;;;;5021398;28;20301;-71
2022/07/01 10:55:48;;;;;;;;;;;17.80;99.90;;;;;;4995049;28;20007;-70
2022/07/01 10:58:13;;;;;;;;;;;18.00;99.90;;;;;;5013257;28;19916;-70
2022/07/01 11:00:57;;;;;;;;;;;18.10;99.90;;;;;;5012560;28;20399;-70
2022/07/01 11:03:23;;;;;;;;;;;18.20;99.90;;;;;;5026249;28;19936;-70
2022/07/01 11:05:50;;;;;;;;;;;18.40;99.90;;;;;;5027792;28;20004;-70
2022/07/01 11:08:16;;;;;;;;;;;18.50;99.90;;;;;;5030018;28;19921;-70
2022/07/01 11:10:41;;;;;;;;;;;18.70;99.90;;;;;;5012175;28;19936;-70
2022/07/01 11:13:07;;;;;;;;;;;18.90;99.90;;;;;;4999310;28;20444;-70
2022/07/01 11:15:33;;;;;;;;;;;19.10;99.90;;;;;;5027239;28;19917;-71
2022/07/01 11:17:59;;;;;;;;;;;19.20;99.90;;;;;;5033358;28;19916;-71
2022/07/01 11:20:25;;;;;;;;;;;19.40;99.90;;;;;;5050287;28;19963;-70
2022/07/01 11:22:51;;;;;;;;;;;19.40;99.90;;;;;;5034451;28;19920;-71
2022/07/01 11:25:17;;;;;;;;;;;19.40;99.90;;;;;;5050214;28;19920;-71
2022/07/01 11:27:45;;;;;;;;;;;19.40;99.90;;;;;;5050144;28;20011;-71
2022/07/01 11:30:14;;;;;;;;;;;19.50;99.90;;;;;;5039775;28;20295;-71
2022/07/01 11:32:42;;;;;;;;;;;19.70;99.90;;;;;;5011010;28;19921;-71
2022/07/01 11:39:21;;;;;;;;;;;19.90;99.90;;;;;;5012596;28;20430;-70
2022/07/01 11:40:58;;;;;;;;;;;19.80;99.90;;;;;;5004212;28;19921;-71
2022/07/01 11:43:25;;;;;;;;;;;19.70;99.90;;;;;;5030255;28;19963;-71
2022/07/01 11:45:52;;;;;;;;;;;19.70;99.90;;;;;;5011541;28;19944;-70
2022/07/01 11:48:36;;;;;;;;;;;19.80;99.90;;;;;;5024602;28;19917;-71
2022/07/01 11:51:05;;;;;;;;;;;19.80;99.90;;;;;;5029349;28;19928;-71
2022/07/01 11:53:31;;;;;;;;;;;19.90;99.90;;;;;;4995629;28;20379;-71
2022/07/01 11:55:57;;;;;;;;;;;19.80;99.90;;;;;;4996019;28;20015;-71
2022/07/01 11:58:23;;;;;;;;;;;19.90;99.90;;;;;;5027175;28;19917;-71
2022/07/01 12:00:49;;;;;;;;;;;19.90;99.90;;;;;;5049744;28;19923;-71
2022/07/01 12:03:28;;;;;;;;;;;19.90;99.90;;;;;;5031402;28;20003;-70
2022/07/01 12:05:54;;;;;;;;;;;19.90;99.90;;;;;;5014757;28;19923;-70
2022/07/01 12:08:19;;;;;;;;;;;19.80;99.90;;;;;;5029611;28;19917;-71
2022/07/01 12:10:45;;;;;;;;;;;19.70;99.90;;;;;;5029690;28;19925;-71
2022/07/01 12:13:23;;;;;;;;;;;19.90;99.90;;;;;;5028699;28;19925;-71
2022/07/01 12:15:49;;;;;;;;;;;20.00;99.90;;;;;;5011701;28;19921;-71
2022/07/01 12:18:15;;;;;;;;;;;20.10;99.90;;;;;;5011729;28;19917;-71
2022/07/01 12:20:47;;;;;;;;;;;20.20;99.90;;;;;;5007205;28;20286;-71
2022/07/01 12:23:13;;;;;;;;;;;20.10;99.90;;;;;;5033824;28;19924;-71
2022/07/01 12:25:39;;;;;;;;;;;20.00;99.90;;;;;;5030863;28;19920;-70
2022/07/01 12:28:05;;;;;;;;;;;19.90;99.90;;;;;;5043485;28;19917;-70
2022/07/01 12:30:33;;;;;;;;;;;19.90;99.90;;;;;;5011426;28;20282;-70
2022/07/01 12:33:08;;;;;;;;;;;20.00;99.90;;;;;;5029298;28;20425;-71
2022/07/01 12:35:33;;;;;;;;;;;20.10;99.90;;;;;;5029095;28;19916;-71
2022/07/01 12:38:01;;;;;;;;;;;20.20;99.90;;;;;;5029082;28;19948;-71
2022/07/01 12:40:30;;;;;;;;;;;20.20;99.90;;;;;;5026303;28;19994;-71
2022/07/01 12:42:56;;;;;;;;;;;20.40;99.90;;;;;;5011258;28;19927;-71
2022/07/01 12:45:23;;;;;;;;;;;20.50;99.90;;;;;;4994853;28;19967;-71
2022/07/01 12:47:50;;;;;;;;;;;20.80;99.90;;;;;;5005242;28;20247;-71
2022/07/01 12:50:17;;;;;;;;;;;20.90;99.90;;;;;;5026985;28;19924;-71
2022/07/01 12:53:03;;;;;;;;;;;20.90;99.90;;;;;;5026430;28;19939;-71
2022/07/01 12:55:35;;;;;;;;;;;20.90;99.90;;;;;;4996971;28;20000;-71
2022/07/01 12:58:02;;;;;;;;;;;20.80;99.90;;;;;;5023923;28;19963;-71
2022/07/01 13:00:28;;;;;;;;;;;20.70;99.90;;;;;;5009624;28;19917;-70
2022/07/01 13:02:56;;;;;;;;;;;20.60;99.90;;;;;;5028617;28;19935;-70
2022/07/01 13:05:22;;;;;;;;;;;20.60;99.90;;;;;;5026091;28;20374;-71
2022/07/01 13:07:48;;;;;;;;;;;20.50;99.90;;;;;;5029087;28;19916;-70
2022/07/01 13:10:14;;;;;;;;;;;20.50;99.90;;;;;;5011379;28;20392;-71
2022/07/01 13:12:40;;;;;;;;;;;20.60;99.90;;;;;;5027934;28;19921;-71
2022/07/01 13:15:05;;;;;;;;;;;20.50;99.90;;;;;;5006971;28;19927;-71
2022/07/01 13:17:31;;;;;;;;;;;20.50;99.90;;;;;;5009853;28;20377;-71
2022/07/01 13:19:56;;;;;;;;;;;20.40;99.90;;;;;;5010520;28;20000;-71
2022/07/01 13:22:22;;;;;;;;;;;20.30;99.90;;;;;;5023618;28;19917;-71
2022/07/01 13:24:48;;;;;;;;;;;20.10;99.90;;;;;;5029423;28;19952;-71
2022/07/01 13:27:13;;;;;;;;;;;20.00;99.90;;;;;;5049176;28;19917;-71
2022/07/01 13:29:39;;;;;;;;;;;20.10;99.90;;;;;;5047240;28;19939;-71
2022/07/01 13:32:04;;;;;;;;;;;20.10;99.90;;;;;;5043012;28;19928;-71
2022/07/01 13:34:30;;;;;;;;;;;20.20;99.90;;;;;;5024366;28;19924;-71
2022/07/01 13:36:56;;;;;;;;;;;20.20;99.90;;;;;;5048418;28;20076;-71
2022/07/01 13:39:22;;;;;;;;;;;20.40;99.90;;;;;;5047554;28;19916;-71
2022/07/01 13:41:47;;;;;;;;;;;20.50;99.90;;;;;;5020067;28;19916;-71
2022/07/01 13:44:13;;;;;;;;;;;20.60;99.90;;;;;;5010706;28;19917;-71
2022/07/01 13:46:39;;;;;;;;;;;20.90;99.90;;;;;;5027656;28;19924;-71
2022/07/01 13:49:04;;;;;;;;;;;21.00;99.90;;;;;;5026018;28;19917;-71
2022/07/01 13:51:30;;;;;;;;;;;21.10;99.90;;;;;;5015677;28;20019;-71
2022/07/01 13:53:57;;;;;;;;;;;21.10;99.90;;;;;;5019893;28;19925;-71
2022/07/01 13:56:23;;;;;;;;;;;21.30;99.90;;;;;;5009866;28;20019;-71
2022/07/01 13:58:50;;;;;;;;;;;21.40;99.90;;;;;;5023270;28;20082;-72
2022/07/01 14:01:17;;;;;;;;;;;21.50;99.90;;;;;;4992146;28;20018;-71
2022/07/01 14:03:42;;;;;;;;;;;21.60;99.90;;;;;;5005331;28;19928;-72
2022/07/01 14:06:08;;;;;;;;;;;21.50;99.90;;;;;;5014942;28;19917;-71
2022/07/01 14:08:33;;;;;;;;;;;21.40;99.90;;;;;;5023148;28;19979;-71
2022/07/01 14:10:59;;;;;;;;;;;21.30;99.90;;;;;;4992590;28;20003;-71
2022/07/01 14:13:25;;;;;;;;;;;21.20;99.90;;;;;;5028499;28;20261;-71
2022/07/01 14:15:51;;;;;;;;;;;21.10;99.90;;;;;;5010451;28;19968;-71
2022/07/01 14:18:16;;;;;;;;;;;21.10;99.90;;;;;;5027730;28;20413;-71
2022/07/01 14:20:42;;;;;;;;;;;21.20;99.90;;;;;;5018863;28;20028;-71
2022/07/01 14:23:08;;;;;;;;;;;21.40;99.90;;;;;;5027948;28;19924;-71
2022/07/01 14:25:33;;;;;;;;;;;21.50;99.90;;;;;;5009442;28;19924;-71
2022/07/01 14:27:59;;;;;;;;;;;21.60;99.90;;;;;;5007094;28;20000;-71
2022/07/01 14:30:24;;;;;;;;;;;21.40;99.90;;;;;;5038393;28;19917;-71